sensor_id;sensor_type;location;lat;lon;timestamp;P1;durP1;ratioP1;P2;durP2;ratioP2
25758;SDS011;13604;52.496;13.456;2023-09-19T00:00:00;5.97;;;3.22;;
25758;SDS011;13604;52.496;13.456;2023-09-19T00:02:34;5.80;;;3.03;;
25758;SDS011;13604;52.496;13.456;2023-09-19T00:05:01;4.80;;;2.63;;
25758;SDS011;13604;52.496;13.456;2023-09-19T00:07:28;4.90;;;2.90;;
25758;SDS011;13604;52.496;13.456;2023-09-19T00:09:53;8.55;;;3.08;;
25758;SDS011;13604;52.496;13.456;2023-09-19T00:12:19;5.57;;;2.40;;
25758;SDS011;13604;52.496;13.456;2023-09-19T00:14:45;6.95;;;2.92;;
25758;SDS011;13604;52.496;13.456;2023-09-19T00:17:10;5.07;;;2.60;;
25758;SDS011;13604;52.496;13.456;2023-09-19T00:19:35;6.43;;;2.95;;
25758;SDS011;13604;52.496;13.456;2023-09-19T00:22:01;10.50;;;2.45;;
25758;SDS011;13604;52.496;13.456;2023-09-19T00:24:27;5.30;;;2.63;;
25758;SDS011;13604;52.496;13.456;2023-09-19T00:26:56;8.45;;;3.22;;
25758;SDS011;13604;52.496;13.456;2023-09-19T00:29:24;7.55;;;2.78;;
25758;SDS011;13604;52.496;13.456;2023-09-19T00:31:53;3.95;;;2.58;;
25758;SDS011;13604;52.496;13.456;2023-09-19T00:34:19;7.30;;;3.00;;
25758;SDS011;13604;52.496;13.456;2023-09-19T00:36:45;5.43;;;2.65;;
25758;SDS011;13604;52.496;13.456;2023-09-19T00:39:10;6.40;;;3.03;;
25758;SDS011;13604;52.496;13.456;2023-09-19T00:41:36;5.75;;;2.85;;
25758;SDS011;13604;52.496;13.456;2023-09-19T00:44:01;6.80;;;3.10;;
25758;SDS011;13604;52.496;13.456;2023-09-19T00:46:28;4.05;;;2.90;;
25758;SDS011;13604;52.496;13.456;2023-09-19T00:48:54;6.68;;;2.83;;
25758;SDS011;13604;52.496;13.456;2023-09-19T00:51:20;5.85;;;2.88;;
25758;SDS011;13604;52.496;13.456;2023-09-19T00:53:47;7.80;;;2.70;;
25758;SDS011;13604;52.496;13.456;2023-09-19T00:56:13;7.05;;;3.08;;
25758;SDS011;13604;52.496;13.456;2023-09-19T00:58:40;10.93;;;2.67;;
25758;SDS011;13604;52.496;13.456;2023-09-19T01:01:05;10.85;;;2.85;;
25758;SDS011;13604;52.496;13.456;2023-09-19T01:03:32;6.70;;;2.80;;
25758;SDS011;13604;52.496;13.456;2023-09-19T01:05:59;6.25;;;2.90;;
25758;SDS011;13604;52.496;13.456;2023-09-19T01:08:25;5.88;;;2.83;;
25758;SDS011;13604;52.496;13.456;2023-09-19T01:10:55;4.63;;;2.67;;
25758;SDS011;13604;52.496;13.456;2023-09-19T01:13:30;5.50;;;2.72;;
25758;SDS011;13604;52.496;13.456;2023-09-19T01:18:52;6.18;;;3.00;;
25758;SDS011;13604;52.496;13.456;2023-09-19T01:21:28;4.03;;;2.70;;
25758;SDS011;13604;52.496;13.456;2023-09-19T01:24:10;5.53;;;2.42;;
25758;SDS011;13604;52.496;13.456;2023-09-19T01:27:06;7.43;;;2.70;;
25758;SDS011;13604;52.496;13.456;2023-09-19T01:30:18;4.57;;;2.78;;
25758;SDS011;13604;52.496;13.456;2023-09-19T01:32:47;8.18;;;3.22;;
25758;SDS011;13604;52.496;13.456;2023-09-19T01:35:17;5.80;;;2.90;;
25758;SDS011;13604;52.496;13.456;2023-09-19T01:37:43;7.40;;;2.92;;
25758;SDS011;13604;52.496;13.456;2023-09-19T01:40:09;5.32;;;3.00;;
25758;SDS011;13604;52.496;13.456;2023-09-19T01:45:50;6.95;;;2.65;;
25758;SDS011;13604;52.496;13.456;2023-09-19T01:48:54;3.78;;;2.80;;
25758;SDS011;13604;52.496;13.456;2023-09-19T01:54:16;6.90;;;3.03;;
25758;SDS011;13604;52.496;13.456;2023-09-19T01:56:49;5.38;;;2.58;;
25758;SDS011;13604;52.496;13.456;2023-09-19T01:59:21;7.40;;;2.90;;
25758;SDS011;13604;52.496;13.456;2023-09-19T02:01:53;5.00;;;2.88;;
25758;SDS011;13604;52.496;13.456;2023-09-19T02:04:20;5.13;;;2.97;;
25758;SDS011;13604;52.496;13.456;2023-09-19T02:06:45;6.70;;;3.30;;
25758;SDS011;13604;52.496;13.456;2023-09-19T02:09:12;7.75;;;2.65;;
25758;SDS011;13604;52.496;13.456;2023-09-19T02:11:39;4.60;;;2.65;;
25758;SDS011;13604;52.496;13.456;2023-09-19T02:14:04;5.25;;;2.70;;
25758;SDS011;13604;52.496;13.456;2023-09-19T02:16:33;10.98;;;3.20;;
25758;SDS011;13604;52.496;13.456;2023-09-19T02:18:58;8.40;;;3.03;;
25758;SDS011;13604;52.496;13.456;2023-09-19T02:21:25;5.72;;;2.65;;
25758;SDS011;13604;52.496;13.456;2023-09-19T02:23:50;6.72;;;3.42;;
25758;SDS011;13604;52.496;13.456;2023-09-19T02:26:16;5.95;;;2.60;;
25758;SDS011;13604;52.496;13.456;2023-09-19T02:28:43;5.30;;;3.25;;
25758;SDS011;13604;52.496;13.456;2023-09-19T02:31:10;5.85;;;3.03;;
25758;SDS011;13604;52.496;13.456;2023-09-19T02:33:36;5.82;;;3.05;;
25758;SDS011;13604;52.496;13.456;2023-09-19T02:36:02;6.70;;;3.20;;
25758;SDS011;13604;52.496;13.456;2023-09-19T02:38:30;4.32;;;2.60;;
25758;SDS011;13604;52.496;13.456;2023-09-19T02:40:55;5.85;;;2.92;;
25758;SDS011;13604;52.496;13.456;2023-09-19T02:43:21;3.67;;;2.60;;
25758;SDS011;13604;52.496;13.456;2023-09-19T02:45:47;4.28;;;2.90;;
25758;SDS011;13604;52.496;13.456;2023-09-19T02:48:14;5.95;;;2.83;;
25758;SDS011;13604;52.496;13.456;2023-09-19T02:50:40;5.38;;;2.83;;
25758;SDS011;13604;52.496;13.456;2023-09-19T02:53:05;5.15;;;3.17;;
25758;SDS011;13604;52.496;13.456;2023-09-19T02:55:31;7.57;;;3.08;;
25758;SDS011;13604;52.496;13.456;2023-09-19T02:57:57;12.27;;;3.13;;
25758;SDS011;13604;52.496;13.456;2023-09-19T03:00:22;5.80;;;2.95;;
25758;SDS011;13604;52.496;13.456;2023-09-19T03:02:49;8.48;;;2.50;;
25758;SDS011;13604;52.496;13.456;2023-09-19T03:05:15;4.15;;;2.70;;
25758;SDS011;13604;52.496;13.456;2023-09-19T03:07:40;10.07;;;3.05;;
25758;SDS011;13604;52.496;13.456;2023-09-19T03:10:08;5.13;;;2.70;;
25758;SDS011;13604;52.496;13.456;2023-09-19T03:12:34;7.32;;;2.90;;
25758;SDS011;13604;52.496;13.456;2023-09-19T03:14:59;2.47;;;2.28;;
25758;SDS011;13604;52.496;13.456;2023-09-19T03:17:24;4.80;;;2.67;;
25758;SDS011;13604;52.496;13.456;2023-09-19T03:19:50;8.18;;;2.75;;
25758;SDS011;13604;52.496;13.456;2023-09-19T03:22:15;2.80;;;2.47;;
25758;SDS011;13604;52.496;13.456;2023-09-19T03:24:41;5.70;;;2.35;;
25758;SDS011;13604;52.496;13.456;2023-09-19T03:27:08;6.00;;;2.63;;
25758;SDS011;13604;52.496;13.456;2023-09-19T03:29:41;5.43;;;2.13;;
25758;SDS011;13604;52.496;13.456;2023-09-19T03:32:06;3.25;;;2.05;;
25758;SDS011;13604;52.496;13.456;2023-09-19T03:34:32;3.25;;;1.98;;
25758;SDS011;13604;52.496;13.456;2023-09-19T03:36:57;2.92;;;1.80;;
25758;SDS011;13604;52.496;13.456;2023-09-19T03:39:22;4.10;;;1.95;;
25758;SDS011;13604;52.496;13.456;2023-09-19T03:41:47;2.45;;;1.67;;
25758;SDS011;13604;52.496;13.456;2023-09-19T03:44:13;3.95;;;2.17;;
25758;SDS011;13604;52.496;13.456;2023-09-19T03:46:38;4.57;;;2.10;;
25758;SDS011;13604;52.496;13.456;2023-09-19T03:49:03;4.25;;;1.90;;
25758;SDS011;13604;52.496;13.456;2023-09-19T03:51:29;4.95;;;2.10;;
25758;SDS011;13604;52.496;13.456;2023-09-19T03:53:54;2.30;;;1.85;;
25758;SDS011;13604;52.496;13.456;2023-09-19T03:56:20;3.33;;;2.00;;
25758;SDS011;13604;52.496;13.456;2023-09-19T03:58:45;5.95;;;1.90;;
25758;SDS011;13604;52.496;13.456;2023-09-19T04:01:10;3.00;;;2.35;;
25758;SDS011;13604;52.496;13.456;2023-09-19T04:03:36;2.83;;;2.00;;
25758;SDS011;13604;52.496;13.456;2023-09-19T04:06:19;3.85;;;1.90;;
25758;SDS011;13604;52.496;13.456;2023-09-19T04:08:45;3.72;;;2.15;;
25758;SDS011;13604;52.496;13.456;2023-09-19T04:11:12;3.85;;;2.47;;
25758;SDS011;13604;52.496;13.456;2023-09-19T04:13:37;5.57;;;1.90;;
25758;SDS011;13604;52.496;13.456;2023-09-19T04:16:03;4.10;;;1.90;;
25758;SDS011;13604;52.496;13.456;2023-09-19T04:18:35;3.80;;;1.95;;
25758;SDS011;13604;52.496;13.456;2023-09-19T04:21:03;3.22;;;2.05;;
25758;SDS011;13604;52.496;13.456;2023-09-19T04:23:29;4.75;;;1.73;;
25758;SDS011;13604;52.496;13.456;2023-09-19T04:25:54;2.47;;;1.92;;
25758;SDS011;13604;52.496;13.456;2023-09-19T04:28:19;3.10;;;2.15;;
25758;SDS011;13604;52.496;13.456;2023-09-19T04:30:45;3.75;;;2.25;;
25758;SDS011;13604;52.496;13.456;2023-09-19T04:33:10;3.60;;;2.13;;
25758;SDS011;13604;52.496;13.456;2023-09-19T04:35:36;3.90;;;1.63;;
25758;SDS011;13604;52.496;13.456;2023-09-19T04:38:03;3.80;;;2.00;;
25758;SDS011;13604;52.496;13.456;2023-09-19T04:40:31;3.72;;;1.85;;
25758;SDS011;13604;52.496;13.456;2023-09-19T04:42:57;3.60;;;1.70;;
25758;SDS011;13604;52.496;13.456;2023-09-19T04:45:23;5.03;;;1.60;;
25758;SDS011;13604;52.496;13.456;2023-09-19T04:47:53;9.43;;;1.92;;
25758;SDS011;13604;52.496;13.456;2023-09-19T04:50:19;2.28;;;1.63;;
25758;SDS011;13604;52.496;13.456;2023-09-19T04:52:48;5.63;;;1.92;;
25758;SDS011;13604;52.496;13.456;2023-09-19T04:55:16;3.83;;;1.75;;
25758;SDS011;13604;52.496;13.456;2023-09-19T04:57:51;5.28;;;1.92;;
25758;SDS011;13604;52.496;13.456;2023-09-19T05:00:20;3.42;;;1.55;;
25758;SDS011;13604;52.496;13.456;2023-09-19T05:02:49;5.40;;;2.28;;
25758;SDS011;13604;52.496;13.456;2023-09-19T05:05:16;1.63;;;1.48;;
25758;SDS011;13604;52.496;13.456;2023-09-19T05:07:44;3.33;;;1.77;;
25758;SDS011;13604;52.496;13.456;2023-09-19T05:10:11;3.22;;;1.58;;
25758;SDS011;13604;52.496;13.456;2023-09-19T05:12:39;3.38;;;1.98;;
25758;SDS011;13604;52.496;13.456;2023-09-19T05:15:04;3.05;;;1.70;;
25758;SDS011;13604;52.496;13.456;2023-09-19T05:17:32;4.63;;;1.60;;
25758;SDS011;13604;52.496;13.456;2023-09-19T05:19:58;3.95;;;1.70;;
25758;SDS011;13604;52.496;13.456;2023-09-19T05:22:23;2.30;;;1.70;;
25758;SDS011;13604;52.496;13.456;2023-09-19T05:24:51;4.22;;;1.98;;
25758;SDS011;13604;52.496;13.456;2023-09-19T05:27:17;3.05;;;1.60;;
25758;SDS011;13604;52.496;13.456;2023-09-19T05:29:46;3.13;;;1.85;;
25758;SDS011;13604;52.496;13.456;2023-09-19T05:32:11;6.78;;;1.90;;
25758;SDS011;13604;52.496;13.456;2023-09-19T05:34:37;5.85;;;2.00;;
25758;SDS011;13604;52.496;13.456;2023-09-19T05:37:03;4.97;;;2.15;;
25758;SDS011;13604;52.496;13.456;2023-09-19T05:39:32;3.83;;;2.20;;
25758;SDS011;13604;52.496;13.456;2023-09-19T05:41:57;3.28;;;1.92;;
25758;SDS011;13604;52.496;13.456;2023-09-19T05:44:22;4.95;;;2.03;;
25758;SDS011;13604;52.496;13.456;2023-09-19T05:46:48;4.13;;;1.90;;
25758;SDS011;13604;52.496;13.456;2023-09-19T05:49:13;6.40;;;1.98;;
25758;SDS011;13604;52.496;13.456;2023-09-19T05:51:39;5.65;;;2.10;;
25758;SDS011;13604;52.496;13.456;2023-09-19T05:54:04;12.07;;;2.05;;
25758;SDS011;13604;52.496;13.456;2023-09-19T05:56:30;2.47;;;2.03;;
25758;SDS011;13604;52.496;13.456;2023-09-19T05:58:56;4.82;;;2.08;;
25758;SDS011;13604;52.496;13.456;2023-09-19T06:01:21;4.10;;;1.95;;
25758;SDS011;13604;52.496;13.456;2023-09-19T06:03:47;7.53;;;2.20;;
25758;SDS011;13604;52.496;13.456;2023-09-19T06:06:12;3.53;;;1.55;;
25758;SDS011;13604;52.496;13.456;2023-09-19T06:08:38;5.88;;;1.90;;
25758;SDS011;13604;52.496;13.456;2023-09-19T06:11:03;3.83;;;2.22;;
25758;SDS011;13604;52.496;13.456;2023-09-19T06:13:32;8.40;;;2.25;;
25758;SDS011;13604;52.496;13.456;2023-09-19T06:15:58;7.72;;;2.00;;
25758;SDS011;13604;52.496;13.456;2023-09-19T06:18:27;4.10;;;2.05;;
25758;SDS011;13604;52.496;13.456;2023-09-19T06:20:54;4.28;;;2.38;;
25758;SDS011;13604;52.496;13.456;2023-09-19T06:23:20;3.30;;;2.03;;
25758;SDS011;13604;52.496;13.456;2023-09-19T06:25:46;8.73;;;2.28;;
25758;SDS011;13604;52.496;13.456;2023-09-19T06:28:11;7.50;;;2.17;;
25758;SDS011;13604;52.496;13.456;2023-09-19T06:30:37;3.85;;;2.35;;
25758;SDS011;13604;52.496;13.456;2023-09-19T06:33:05;7.45;;;2.20;;
25758;SDS011;13604;52.496;13.456;2023-09-19T06:35:32;3.95;;;2.22;;
25758;SDS011;13604;52.496;13.456;2023-09-19T06:37:58;4.55;;;2.08;;
25758;SDS011;13604;52.496;13.456;2023-09-19T06:40:23;4.20;;;2.33;;
25758;SDS011;13604;52.496;13.456;2023-09-19T06:42:52;10.15;;;2.80;;
25758;SDS011;13604;52.496;13.456;2023-09-19T06:45:19;7.53;;;2.60;;
25758;SDS011;13604;52.496;13.456;2023-09-19T06:47:48;6.75;;;2.13;;
25758;SDS011;13604;52.496;13.456;2023-09-19T06:50:14;6.15;;;2.20;;
25758;SDS011;13604;52.496;13.456;2023-09-19T06:52:40;7.93;;;2.63;;
25758;SDS011;13604;52.496;13.456;2023-09-19T06:55:06;5.82;;;2.05;;
25758;SDS011;13604;52.496;13.456;2023-09-19T06:57:32;5.40;;;2.00;;
25758;SDS011;13604;52.496;13.456;2023-09-19T06:59:57;6.22;;;2.80;;
25758;SDS011;13604;52.496;13.456;2023-09-19T07:02:22;4.00;;;2.10;;
25758;SDS011;13604;52.496;13.456;2023-09-19T07:04:48;4.80;;;2.10;;
25758;SDS011;13604;52.496;13.456;2023-09-19T07:07:14;6.82;;;2.28;;
25758;SDS011;13604;52.496;13.456;2023-09-19T07:09:40;5.90;;;2.40;;
25758;SDS011;13604;52.496;13.456;2023-09-19T07:12:05;5.05;;;2.40;;
25758;SDS011;13604;52.496;13.456;2023-09-19T07:14:30;7.38;;;2.40;;
25758;SDS011;13604;52.496;13.456;2023-09-19T07:16:56;6.32;;;2.25;;
25758;SDS011;13604;52.496;13.456;2023-09-19T07:19:21;8.30;;;2.25;;
25758;SDS011;13604;52.496;13.456;2023-09-19T07:21:46;5.57;;;1.77;;
25758;SDS011;13604;52.496;13.456;2023-09-19T07:24:12;5.15;;;1.77;;
25758;SDS011;13604;52.496;13.456;2023-09-19T07:26:38;6.93;;;2.60;;
25758;SDS011;13604;52.496;13.456;2023-09-19T07:29:04;4.40;;;1.60;;
25758;SDS011;13604;52.496;13.456;2023-09-19T07:31:31;5.65;;;2.20;;
25758;SDS011;13604;52.496;13.456;2023-09-19T07:33:57;4.57;;;1.70;;
25758;SDS011;13604;52.496;13.456;2023-09-19T07:36:22;7.55;;;2.42;;
25758;SDS011;13604;52.496;13.456;2023-09-19T07:38:49;6.40;;;1.92;;
25758;SDS011;13604;52.496;13.456;2023-09-19T07:41:14;5.95;;;2.40;;
25758;SDS011;13604;52.496;13.456;2023-09-19T07:43:39;5.50;;;2.42;;
25758;SDS011;13604;52.496;13.456;2023-09-19T07:46:08;5.95;;;2.28;;
25758;SDS011;13604;52.496;13.456;2023-09-19T07:48:36;3.78;;;2.20;;
25758;SDS011;13604;52.496;13.456;2023-09-19T07:51:03;10.68;;;2.70;;
25758;SDS011;13604;52.496;13.456;2023-09-19T07:53:29;7.13;;;2.92;;
25758;SDS011;13604;52.496;13.456;2023-09-19T07:56:01;5.50;;;2.35;;
25758;SDS011;13604;52.496;13.456;2023-09-19T07:58:28;5.38;;;2.50;;
25758;SDS011;13604;52.496;13.456;2023-09-19T08:00:54;7.63;;;2.42;;
25758;SDS011;13604;52.496;13.456;2023-09-19T08:03:19;3.33;;;2.17;;
25758;SDS011;13604;52.496;13.456;2023-09-19T08:05:44;12.85;;;2.88;;
25758;SDS011;13604;52.496;13.456;2023-09-19T08:08:10;8.85;;;2.47;;
25758;SDS011;13604;52.496;13.456;2023-09-19T08:10:38;9.68;;;2.58;;
25758;SDS011;13604;52.496;13.456;2023-09-19T08:13:07;4.45;;;2.40;;
25758;SDS011;13604;52.496;13.456;2023-09-19T08:15:36;7.85;;;2.65;;
25758;SDS011;13604;52.496;13.456;2023-09-19T08:18:08;9.05;;;2.72;;
25758;SDS011;13604;52.496;13.456;2023-09-19T08:20:35;9.32;;;2.20;;
25758;SDS011;13604;52.496;13.456;2023-09-19T08:23:02;5.40;;;2.38;;
25758;SDS011;13604;52.496;13.456;2023-09-19T08:25:28;4.53;;;2.30;;
25758;SDS011;13604;52.496;13.456;2023-09-19T08:27:54;3.53;;;2.20;;
25758;SDS011;13604;52.496;13.456;2023-09-19T08:30:23;6.60;;;2.47;;
25758;SDS011;13604;52.496;13.456;2023-09-19T08:32:58;7.78;;;2.67;;
25758;SDS011;13604;52.496;13.456;2023-09-19T08:35:24;8.23;;;2.72;;
25758;SDS011;13604;52.496;13.456;2023-09-19T08:37:50;6.97;;;2.30;;
25758;SDS011;13604;52.496;13.456;2023-09-19T08:40:16;5.22;;;2.22;;
25758;SDS011;13604;52.496;13.456;2023-09-19T08:42:49;5.28;;;2.47;;
25758;SDS011;13604;52.496;13.456;2023-09-19T08:45:15;5.10;;;2.60;;
25758;SDS011;13604;52.496;13.456;2023-09-19T08:47:46;6.72;;;2.75;;
25758;SDS011;13604;52.496;13.456;2023-09-19T08:50:28;8.48;;;2.72;;
25758;SDS011;13604;52.496;13.456;2023-09-19T08:53:00;4.75;;;2.30;;
25758;SDS011;13604;52.496;13.456;2023-09-19T08:55:27;5.68;;;2.25;;
25758;SDS011;13604;52.496;13.456;2023-09-19T08:58:00;6.53;;;2.60;;
25758;SDS011;13604;52.496;13.456;2023-09-19T09:00:29;5.88;;;2.03;;
25758;SDS011;13604;52.496;13.456;2023-09-19T09:02:56;7.10;;;2.63;;
25758;SDS011;13604;52.496;13.456;2023-09-19T09:05:23;7.32;;;2.70;;
25758;SDS011;13604;52.496;13.456;2023-09-19T09:07:49;6.18;;;2.33;;
25758;SDS011;13604;52.496;13.456;2023-09-19T09:10:20;3.95;;;2.38;;
25758;SDS011;13604;52.496;13.456;2023-09-19T09:12:52;8.75;;;2.78;;
25758;SDS011;13604;52.496;13.456;2023-09-19T09:15:19;8.52;;;2.90;;
25758;SDS011;13604;52.496;13.456;2023-09-19T09:17:48;3.95;;;2.40;;
25758;SDS011;13604;52.496;13.456;2023-09-19T09:20:15;7.30;;;2.33;;
25758;SDS011;13604;52.496;13.456;2023-09-19T09:22:50;8.38;;;2.75;;
25758;SDS011;13604;52.496;13.456;2023-09-19T09:25:19;5.45;;;2.40;;
25758;SDS011;13604;52.496;13.456;2023-09-19T09:27:57;6.47;;;2.55;;
25758;SDS011;13604;52.496;13.456;2023-09-19T09:30:35;7.80;;;2.33;;
25758;SDS011;13604;52.496;13.456;2023-09-19T09:33:09;5.80;;;2.30;;
25758;SDS011;13604;52.496;13.456;2023-09-19T09:35:36;6.97;;;2.50;;
25758;SDS011;13604;52.496;13.456;2023-09-19T09:38:04;10.02;;;2.90;;
25758;SDS011;13604;52.496;13.456;2023-09-19T09:40:45;6.55;;;2.50;;
25758;SDS011;13604;52.496;13.456;2023-09-19T09:43:28;6.25;;;2.97;;
25758;SDS011;13604;52.496;13.456;2023-09-19T09:46:08;7.85;;;3.08;;
25758;SDS011;13604;52.496;13.456;2023-09-19T09:49:03;10.38;;;2.88;;
25758;SDS011;13604;52.496;13.456;2023-09-19T09:51:50;9.50;;;3.08;;
25758;SDS011;13604;52.496;13.456;2023-09-19T09:54:25;9.60;;;2.70;;
25758;SDS011;13604;52.496;13.456;2023-09-19T09:56:59;12.63;;;2.97;;
25758;SDS011;13604;52.496;13.456;2023-09-19T10:02:21;6.03;;;2.40;;
25758;SDS011;13604;52.496;13.456;2023-09-19T10:04:54;5.60;;;2.85;;
25758;SDS011;13604;52.496;13.456;2023-09-19T10:07:41;8.07;;;3.03;;
25758;SDS011;13604;52.496;13.456;2023-09-19T10:10:13;7.15;;;2.95;;
25758;SDS011;13604;52.496;13.456;2023-09-19T10:12:42;6.22;;;2.88;;
25758;SDS011;13604;52.496;13.456;2023-09-19T10:15:11;5.47;;;2.50;;
25758;SDS011;13604;52.496;13.456;2023-09-19T10:17:40;9.35;;;3.15;;
25758;SDS011;13604;52.496;13.456;2023-09-19T10:20:08;11.13;;;2.75;;
25758;SDS011;13604;52.496;13.456;2023-09-19T10:22:47;6.30;;;2.40;;
25758;SDS011;13604;52.496;13.456;2023-09-19T10:25:23;6.05;;;2.42;;
25758;SDS011;13604;52.496;13.456;2023-09-19T10:27:53;5.55;;;2.50;;
25758;SDS011;13604;52.496;13.456;2023-09-19T10:30:20;8.02;;;2.90;;
25758;SDS011;13604;52.496;13.456;2023-09-19T10:32:50;10.57;;;2.85;;
25758;SDS011;13604;52.496;13.456;2023-09-19T10:35:26;6.20;;;2.65;;
25758;SDS011;13604;52.496;13.456;2023-09-19T10:37:54;5.13;;;2.58;;
25758;SDS011;13604;52.496;13.456;2023-09-19T10:40:21;11.35;;;3.40;;
25758;SDS011;13604;52.496;13.456;2023-09-19T10:42:51;6.65;;;2.97;;
25758;SDS011;13604;52.496;13.456;2023-09-19T10:45:19;6.53;;;2.30;;
25758;SDS011;13604;52.496;13.456;2023-09-19T10:47:45;7.95;;;3.35;;
25758;SDS011;13604;52.496;13.456;2023-09-19T10:50:19;7.22;;;2.70;;
25758;SDS011;13604;52.496;13.456;2023-09-19T10:52:47;6.07;;;2.92;;
25758;SDS011;13604;52.496;13.456;2023-09-19T10:55:18;6.88;;;2.63;;
25758;SDS011;13604;52.496;13.456;2023-09-19T10:57:47;8.25;;;2.63;;
25758;SDS011;13604;52.496;13.456;2023-09-19T11:00:13;5.30;;;2.80;;
25758;SDS011;13604;52.496;13.456;2023-09-19T11:05:44;7.53;;;2.50;;
25758;SDS011;13604;52.496;13.456;2023-09-19T11:08:25;6.20;;;2.80;;
25758;SDS011;13604;52.496;13.456;2023-09-19T11:10:51;9.27;;;3.05;;
25758;SDS011;13604;52.496;13.456;2023-09-19T11:13:23;10.02;;;2.90;;
25758;SDS011;13604;52.496;13.456;2023-09-19T11:18:50;6.43;;;2.60;;
25758;SDS011;13604;52.496;13.456;2023-09-19T11:26:57;11.88;;;3.08;;
25758;SDS011;13604;52.496;13.456;2023-09-19T11:29:34;12.07;;;2.93;;
25758;SDS011;13604;52.496;13.456;2023-09-19T11:32:02;8.38;;;2.60;;
25758;SDS011;13604;52.496;13.456;2023-09-19T11:39:38;7.35;;;2.40;;
25758;SDS011;13604;52.496;13.456;2023-09-19T11:45:06;5.68;;;2.40;;
25758;SDS011;13604;52.496;13.456;2023-09-19T11:47:32;7.60;;;2.30;;
25758;SDS011;13604;52.496;13.456;2023-09-19T11:50:00;9.10;;;2.70;;
25758;SDS011;13604;52.496;13.456;2023-09-19T11:52:26;5.45;;;2.13;;
25758;SDS011;13604;52.496;13.456;2023-09-19T11:54:57;8.18;;;2.40;;
25758;SDS011;13604;52.496;13.456;2023-09-19T11:57:26;8.07;;;2.78;;
25758;SDS011;13604;52.496;13.456;2023-09-19T11:59:55;12.45;;;2.60;;
25758;SDS011;13604;52.496;13.456;2023-09-19T12:02:32;7.47;;;2.70;;
25758;SDS011;13604;52.496;13.456;2023-09-19T12:05:07;7.50;;;2.88;;
25758;SDS011;13604;52.496;13.456;2023-09-19T12:07:41;9.73;;;2.70;;
25758;SDS011;13604;52.496;13.456;2023-09-19T12:10:07;5.35;;;2.40;;
25758;SDS011;13604;52.496;13.456;2023-09-19T12:12:36;12.25;;;2.72;;
25758;SDS011;13604;52.496;13.456;2023-09-19T12:15:02;7.05;;;2.53;;
25758;SDS011;13604;52.496;13.456;2023-09-19T12:17:41;4.35;;;2.08;;
25758;SDS011;13604;52.496;13.456;2023-09-19T12:20:07;6.13;;;2.55;;
25758;SDS011;13604;52.496;13.456;2023-09-19T12:22:40;5.18;;;2.00;;
25758;SDS011;13604;52.496;13.456;2023-09-19T12:25:09;6.00;;;2.13;;
25758;SDS011;13604;52.496;13.456;2023-09-19T12:27:46;5.88;;;2.00;;
25758;SDS011;13604;52.496;13.456;2023-09-19T12:30:17;9.23;;;2.70;;
25758;SDS011;13604;52.496;13.456;2023-09-19T12:32:45;9.80;;;2.55;;
25758;SDS011;13604;52.496;13.456;2023-09-19T12:35:32;4.47;;;1.90;;
25758;SDS011;13604;52.496;13.456;2023-09-19T12:38:01;5.70;;;2.35;;
25758;SDS011;13604;52.496;13.456;2023-09-19T12:40:28;8.73;;;2.13;;
25758;SDS011;13604;52.496;13.456;2023-09-19T12:42:58;5.65;;;2.10;;
25758;SDS011;13604;52.496;13.456;2023-09-19T12:45:24;5.30;;;1.70;;
25758;SDS011;13604;52.496;13.456;2023-09-19T12:53:36;6.47;;;2.40;;
25758;SDS011;13604;52.496;13.456;2023-09-19T12:56:11;7.40;;;2.30;;
25758;SDS011;13604;52.496;13.456;2023-09-19T12:58:55;5.35;;;2.13;;
25758;SDS011;13604;52.496;13.456;2023-09-19T13:01:21;6.45;;;2.20;;
25758;SDS011;13604;52.496;13.456;2023-09-19T13:06:46;4.75;;;2.00;;
25758;SDS011;13604;52.496;13.456;2023-09-19T13:09:13;8.13;;;2.35;;
25758;SDS011;13604;52.496;13.456;2023-09-19T13:11:39;6.13;;;1.90;;
25758;SDS011;13604;52.496;13.456;2023-09-19T13:14:23;9.13;;;2.45;;
25758;SDS011;13604;52.496;13.456;2023-09-19T13:17:23;3.85;;;2.20;;
25758;SDS011;13604;52.496;13.456;2023-09-19T13:19:45;5.07;;;2.40;;
25758;SDS011;13604;52.496;13.456;2023-09-19T13:25:03;5.88;;;2.15;;
25758;SDS011;13604;52.496;13.456;2023-09-19T13:27:43;4.30;;;1.65;;
25758;SDS011;13604;52.496;13.456;2023-09-19T13:30:17;7.22;;;2.20;;
25758;SDS011;13604;52.496;13.456;2023-09-19T13:32:43;7.45;;;2.28;;
25758;SDS011;13604;52.496;13.456;2023-09-19T13:35:09;10.15;;;2.45;;
25758;SDS011;13604;52.496;13.456;2023-09-19T13:37:35;5.32;;;1.88;;
25758;SDS011;13604;52.496;13.456;2023-09-19T13:40:03;7.38;;;2.60;;
25758;SDS011;13604;52.496;13.456;2023-09-19T13:42:30;12.80;;;1.70;;
25758;SDS011;13604;52.496;13.456;2023-09-19T13:44:55;3.13;;;2.00;;
25758;SDS011;13604;52.496;13.456;2023-09-19T13:47:21;5.30;;;1.70;;
25758;SDS011;13604;52.496;13.456;2023-09-19T13:49:49;4.35;;;2.17;;
25758;SDS011;13604;52.496;13.456;2023-09-19T13:52:17;6.35;;;1.70;;
25758;SDS011;13604;52.496;13.456;2023-09-19T13:54:43;10.02;;;2.28;;
25758;SDS011;13604;52.496;13.456;2023-09-19T13:57:08;4.50;;;2.25;;
25758;SDS011;13604;52.496;13.456;2023-09-19T13:59:34;5.53;;;1.90;;
25758;SDS011;13604;52.496;13.456;2023-09-19T14:02:00;5.05;;;2.22;;
25758;SDS011;13604;52.496;13.456;2023-09-19T14:04:25;5.18;;;2.22;;
25758;SDS011;13604;52.496;13.456;2023-09-19T14:06:51;6.18;;;1.92;;
25758;SDS011;13604;52.496;13.456;2023-09-19T14:09:16;4.78;;;1.98;;
25758;SDS011;13604;52.496;13.456;2023-09-19T14:11:44;6.38;;;2.20;;
25758;SDS011;13604;52.496;13.456;2023-09-19T14:14:12;6.68;;;2.20;;
25758;SDS011;13604;52.496;13.456;2023-09-19T14:16:37;3.67;;;2.25;;
25758;SDS011;13604;52.496;13.456;2023-09-19T14:19:04;6.10;;;2.22;;
25758;SDS011;13604;52.496;13.456;2023-09-19T14:21:30;4.05;;;1.88;;
25758;SDS011;13604;52.496;13.456;2023-09-19T14:23:55;11.98;;;2.60;;
25758;SDS011;13604;52.496;13.456;2023-09-19T14:26:21;6.00;;;2.40;;
25758;SDS011;13604;52.496;13.456;2023-09-19T14:28:48;4.85;;;2.17;;
25758;SDS011;13604;52.496;13.456;2023-09-19T14:31:13;5.65;;;2.35;;
25758;SDS011;13604;52.496;13.456;2023-09-19T14:33:39;4.82;;;2.17;;
25758;SDS011;13604;52.496;13.456;2023-09-19T14:36:05;6.05;;;2.08;;
25758;SDS011;13604;52.496;13.456;2023-09-19T14:38:33;6.88;;;2.20;;
25758;SDS011;13604;52.496;13.456;2023-09-19T14:41:00;6.13;;;1.95;;
25758;SDS011;13604;52.496;13.456;2023-09-19T14:43:26;7.07;;;2.50;;
25758;SDS011;13604;52.496;13.456;2023-09-19T14:45:52;8.38;;;2.53;;
25758;SDS011;13604;52.496;13.456;2023-09-19T14:48:17;3.88;;;2.15;;
25758;SDS011;13604;52.496;13.456;2023-09-19T14:50:42;6.38;;;2.45;;
25758;SDS011;13604;52.496;13.456;2023-09-19T14:53:09;9.77;;;2.67;;
25758;SDS011;13604;52.496;13.456;2023-09-19T14:55:38;7.70;;;1.77;;
25758;SDS011;13604;52.496;13.456;2023-09-19T14:58:06;13.10;;;2.40;;
25758;SDS011;13604;52.496;13.456;2023-09-19T15:00:32;8.95;;;2.80;;
25758;SDS011;13604;52.496;13.456;2023-09-19T15:02:59;5.90;;;1.92;;
25758;SDS011;13604;52.496;13.456;2023-09-19T15:05:24;6.32;;;2.20;;
25758;SDS011;13604;52.496;13.456;2023-09-19T15:07:50;6.40;;;1.95;;
25758;SDS011;13604;52.496;13.456;2023-09-19T15:10:15;6.50;;;2.20;;
25758;SDS011;13604;52.496;13.456;2023-09-19T15:12:41;5.03;;;2.17;;
25758;SDS011;13604;52.496;13.456;2023-09-19T15:15:06;5.93;;;2.47;;
25758;SDS011;13604;52.496;13.456;2023-09-19T15:17:33;10.18;;;2.13;;
25758;SDS011;13604;52.496;13.456;2023-09-19T15:19:58;6.30;;;2.50;;
25758;SDS011;13604;52.496;13.456;2023-09-19T15:22:24;6.43;;;2.33;;